Weather at San Antonio de Areco Airport

Public forecast

Using degrees Celsius for public forecast. Weather courtesy of forecast.io.

Closest aviation weather report (METAR) to San Antonio de Areco Airport

Closest report is San Fernando Airport, 44.5 nm (82.4 km) ESE. Retrieved 2021/11/29 16:00 UTC (52 minutes ago):

SADF 291600Z 21018G29KT 9999 BKN033 24/15 Q1004

Closest aviation forecast (TAF) to San Antonio de Areco Airport

Closest forecast is San Fernando Airport, 44.5 nm (82.4 km) ESE. Retrieved 2021/11/29 12:00 UTC (5 hours ago):

TAF SADF 291100Z 2912/3012 22015KT 9999 BKN015 TX26/2918Z TN16/3009Z TEMPO 2912/2916 22015G25KT BECMG 2916/2918 CAVOK BECMG 3003/3005 20005KT